Livermore, CA (94551)

7:17 PM PST on February 13, 2016 (GMT -0800)
Springtown | | Change Station
CLOSE
Current Station
Personal Weather Station
Location: Livermore, CA
Elevation: 509 ft
Nearby Weather Stations

Elev 509 ft 37.72 °N, 121.74 °W | Updated 1 minute ago

Clear
Clear
55.9 °F
Feels Like 55.9 °F
N
0.0
Wind Variable Wind from West

Today
High -- | Low -- °F
--% Chance of Precip.
Yesterday
High -- | Low -- °F
Precip. -- in
Pressure 30.23 in
Visibility 10.0 miles
Clouds Clear
Dew Point 50 °F
Humidity 81%
Rainfall 0.00 in
Snow Depth Not available.
6:59 AM 5:43 PM
Waxing Crescent, 37% visible
METAR KLVK 140253Z 31007KT 10SM CLR 16/09 A3023 RMK AO2 SLP237 T01560089 53015
Pressure 30.23 in
Visibility 10.0 miles
Clouds Clear
Dew Point 50 °F
Humidity 81%
Rainfall 0.00 in
Snow Depth Not available.
6:59 AM 5:43 PM
Waxing Crescent, 37% visible
METAR KLVK 140253Z 31007KT 10SM CLR 16/09 A3023 RMK AO2 SLP237 T01560089 53015

10-Day Weather Forecast

Almanac

Astronomy

Feb. 13, 2016 Rise Set
Actual Time
Civil Twilight
Nautical Twilight
Astronomical Twilight
Moon
Length of Visible Light
Length of Day
Tomorrow will be .
, % of the Moon is Illuminated

Today's Extremes

State Highs State Lows

Community

WunderPhotos

Upload Photos

1,892,733 photos uploaded!

WunderBlog® & News

Nearby

Air Quality

  Air Quality AQ Index Pollutant
Not available.

Snow Depth

Station Depth Elevation

Earthquake Activity

City Distance Mag. Time & Date
Minimum magnitude displayed is 2.5.

Coastal Water Temperatures

Place Temperature

Stations

Nearby Weather Stations

Station Location Temp. Windchill Dew Point Humidity Wind Precip. Elev Updated Type
                   

Watches & Warnings

There are currently no watches in effect.